Time;durP1;ratioP1;P1;durP2;ratioP2;P2;SDS_P1;SDS_P2;PMS_P1;PMS_P2;Temp;Humidity;BMP_temperature;BMP_pressure;BME280_temperature;BME280_humidity;BME280_pressure;Samples;Min_cycle;Max_cycle;Signal;HPM_P1;HPM_P2
2023/09/25 00:01:33;;;;;;;39.08;36.78;;;16.30;99.90;;;;;;5057185;28;20045;-71
2023/09/25 00:03:59;;;;;;;36.80;34.75;;;16.30;99.90;;;;;;5058695;28;20044;-71
2023/09/25 00:06:26;;;;;;;34.05;31.90;;;16.20;99.90;;;;;;5058139;28;20044;-72
2023/09/25 00:08:52;;;;;;;50.33;47.30;;;16.30;99.90;;;;;;5057404;28;20037;-71
2023/09/25 00:11:18;;;;;;;65.20;61.42;;;16.20;99.90;;;;;;5057829;28;20025;-71
2023/09/25 00:13:44;;;;;;;48.67;45.90;;;16.10;99.90;;;;;;5058104;28;20052;-71
2023/09/25 00:16:14;;;;;;;100.03;94.63;;;16.10;99.90;;;;;;5057837;28;20491;-71
2023/09/25 00:18:41;;;;;;;41.90;39.58;;;16.00;99.90;;;;;;5058025;28;20033;-71
2023/09/25 00:21:07;;;;;;;46.13;43.40;;;16.00;99.90;;;;;;5056408;28;20017;-71
2023/09/25 00:23:33;;;;;;;115.93;109.72;;;16.00;99.90;;;;;;5058100;28;20052;-71
2023/09/25 00:26:05;;;;;;;121.70;115.55;;;15.90;99.90;;;;;;5056857;28;20377;-71
2023/09/25 00:28:31;;;;;;;149.93;142.27;;;15.70;99.90;;;;;;5057930;28;20045;-71
2023/09/25 00:30:57;;;;;;;82.43;78.15;;;15.60;99.90;;;;;;5056331;28;20036;-70
2023/09/25 00:33:23;;;;;;;79.50;75.18;;;15.80;99.90;;;;;;5058024;28;20368;-71
2023/09/25 00:35:49;;;;;;;65.28;61.85;;;15.80;99.90;;;;;;5057667;28;20379;-71
2023/09/25 00:38:15;;;;;;;67.20;63.33;;;15.80;99.90;;;;;;5055502;28;20048;-71
2023/09/25 00:40:42;;;;;;;119.97;113.72;;;15.90;99.90;;;;;;5054574;28;20052;-71
2023/09/25 00:43:13;;;;;;;72.30;68.35;;;15.90;99.90;;;;;;5054762;28;20044;-71
2023/09/25 00:45:41;;;;;;;79.18;75.00;;;15.80;99.90;;;;;;5052997;28;20040;-71
2023/09/25 00:48:10;;;;;;;40.83;38.58;;;15.70;99.90;;;;;;5054804;28;20037;-71
2023/09/25 00:50:36;;;;;;;50.50;47.20;;;15.70;99.90;;;;;;5036493;28;20387;-71
2023/09/25 00:53:06;;;;;;;85.22;80.80;;;15.70;99.90;;;;;;5037241;28;20029;-71
2023/09/25 00:55:33;;;;;;;106.25;100.55;;;15.80;99.90;;;;;;5035998;28;20052;-72
2023/09/25 00:57:59;;;;;;;105.22;99.63;;;15.70;99.90;;;;;;5052731;28;20028;-71
2023/09/25 01:00:25;;;;;;;84.78;80.35;;;15.70;99.90;;;;;;5052468;28;20029;-71
2023/09/25 01:02:51;;;;;;;76.63;72.55;;;15.70;99.90;;;;;;5052959;28;20511;-71
2023/09/25 01:05:17;;;;;;;64.70;61.28;;;15.70;99.90;;;;;;5054062;28;20036;-71
2023/09/25 01:07:44;;;;;;;74.75;70.72;;;15.60;99.90;;;;;;5035528;28;20028;-71
2023/09/25 01:10:14;;;;;;;84.65;80.13;;;15.70;99.90;;;;;;5052720;28;20021;-71
2023/09/25 01:12:40;;;;;;;76.97;72.83;;;15.60;99.90;;;;;;5053476;28;20052;-71
2023/09/25 01:15:07;;;;;;;76.82;72.65;;;15.60;99.90;;;;;;5053650;28;20049;-71
2023/09/25 01:17:33;;;;;;;59.85;56.30;;;15.60;99.90;;;;;;5053935;28;20380;-71
2023/09/25 01:20:00;;;;;;;61.85;58.45;;;15.50;99.90;;;;;;5054129;28;20017;-71
2023/09/25 01:22:27;;;;;;;79.85;75.28;;;15.50;99.90;;;;;;5052259;28;20044;-71
2023/09/25 01:24:53;;;;;;;81.15;76.80;;;15.60;99.90;;;;;;5053972;28;20367;-71
2023/09/25 01:27:19;;;;;;;51.42;48.67;;;15.50;99.90;;;;;;5053798;28;20056;-71
2023/09/25 01:29:45;;;;;;;48.83;45.85;;;15.50;99.90;;;;;;5053818;28;20033;-71
2023/09/25 01:32:12;;;;;;;41.25;38.85;;;15.50;99.90;;;;;;5052846;28;20060;-71
2023/09/25 01:34:38;;;;;;;39.42;37.13;;;15.40;99.90;;;;;;5053325;28;20055;-71
2023/09/25 01:37:04;;;;;;;33.40;31.38;;;15.40;99.90;;;;;;5053480;28;20036;-71
2023/09/25 01:39:32;;;;;;;31.40;29.60;;;15.40;99.90;;;;;;5053582;28;20063;-71
2023/09/25 01:41:58;;;;;;;39.78;37.47;;;15.40;99.90;;;;;;5051371;28;20041;-71
2023/09/25 01:44:26;;;;;;;36.28;33.90;;;15.40;99.90;;;;;;5053706;28;20021;-71
2023/09/25 01:46:52;;;;;;;38.72;36.45;;;15.40;99.90;;;;;;5053026;28;20033;-71
2023/09/25 01:49:18;;;;;;;55.53;52.22;;;15.40;99.90;;;;;;5052239;28;20041;-71
2023/09/25 01:51:44;;;;;;;45.80;43.25;;;15.30;99.90;;;;;;5052802;28;20025;-71
2023/09/25 01:54:10;;;;;;;56.40;53.08;;;15.30;99.90;;;;;;5053573;28;20025;-71
2023/09/25 01:56:36;;;;;;;45.53;42.97;;;15.30;99.90;;;;;;5052972;28;20029;-71
2023/09/25 01:59:02;;;;;;;49.83;46.90;;;15.30;99.90;;;;;;5053185;28;20037;-71
2023/09/25 02:01:28;;;;;;;46.25;43.67;;;15.30;99.90;;;;;;5052575;28;20041;-71
2023/09/25 02:03:55;;;;;;;64.63;60.97;;;15.40;99.90;;;;;;5053011;28;20686;-71
2023/09/25 02:06:21;;;;;;;50.97;48.08;;;15.40;99.90;;;;;;5052612;28;20032;-71
2023/09/25 02:08:47;;;;;;;43.72;40.78;;;15.40;99.90;;;;;;5052753;28;20064;-71
2023/09/25 02:11:14;;;;;;;76.40;72.05;;;15.30;99.90;;;;;;5052723;28;20114;-71
2023/09/25 02:13:40;;;;;;;67.20;63.08;;;15.30;99.90;;;;;;5053021;28;20048;-71
2023/09/25 02:16:06;;;;;;;60.20;56.65;;;15.30;99.90;;;;;;5052288;28;20044;-71
2023/09/25 02:18:32;;;;;;;67.47;63.72;;;15.30;99.90;;;;;;5052297;28;20064;-71
2023/09/25 02:20:58;;;;;;;60.67;57.17;;;15.30;99.90;;;;;;5053033;28;20037;-71
2023/09/25 02:23:24;;;;;;;58.05;54.50;;;15.30;99.90;;;;;;5053360;28;20132;-71
2023/09/25 02:25:51;;;;;;;58.60;55.15;;;15.30;99.90;;;;;;5052583;28;20021;-71
2023/09/25 02:28:17;;;;;;;66.32;62.50;;;15.30;99.90;;;;;;5052325;28;20040;-69
2023/09/25 02:30:43;;;;;;;68.57;64.88;;;15.20;99.90;;;;;;5051949;28;20036;-71
2023/09/25 02:33:09;;;;;;;56.58;53.35;;;15.30;99.90;;;;;;5051502;28;20380;-71
2023/09/25 02:35:36;;;;;;;55.38;52.20;;;15.20;99.90;;;;;;5052915;28;20486;-71
2023/09/25 02:38:04;;;;;;;59.72;56.25;;;15.10;99.90;;;;;;5052311;28;20041;-71
2023/09/25 02:40:31;;;;;;;49.55;46.63;;;15.00;99.90;;;;;;5052623;28;20043;-71
2023/09/25 02:42:57;;;;;;;56.25;53.05;;;15.10;99.90;;;;;;5051488;28;20033;-70
2023/09/25 02:45:24;;;;;;;46.58;43.65;;;15.10;99.90;;;;;;5051779;28;20047;-71
2023/09/25 02:47:50;;;;;;;43.50;40.88;;;15.10;99.90;;;;;;5051738;28;20059;-71
2023/09/25 02:50:16;;;;;;;65.15;61.60;;;15.00;99.90;;;;;;5052354;28;20411;-71
2023/09/25 02:52:43;;;;;;;57.55;54.22;;;15.00;99.90;;;;;;5052458;28;20048;-71
2023/09/25 02:55:10;;;;;;;56.55;53.35;;;15.00;99.90;;;;;;5052359;28;20029;-71
2023/09/25 02:57:36;;;;;;;41.53;39.08;;;15.10;99.90;;;;;;5052184;28;20029;-71
2023/09/25 03:00:08;;;;;;;38.70;36.00;;;15.00;99.90;;;;;;5051758;28;20036;-69
2023/09/25 03:02:35;;;;;;;45.92;43.22;;;15.00;99.90;;;;;;5050890;28;20419;-71
2023/09/25 03:05:01;;;;;;;43.72;40.90;;;14.90;99.90;;;;;;5052247;28;20063;-71
2023/09/25 03:07:27;;;;;;;42.17;39.72;;;14.90;99.90;;;;;;5051875;28;20028;-71
2023/09/25 03:09:53;;;;;;;39.88;37.38;;;15.00;99.90;;;;;;5051609;28;20037;-71
2023/09/25 03:12:19;;;;;;;34.20;31.88;;;15.00;99.90;;;;;;5051853;28;20467;-71
2023/09/25 03:14:45;;;;;;;37.95;35.42;;;15.00;99.90;;;;;;5052065;28;20053;-71
2023/09/25 03:17:12;;;;;;;38.95;36.53;;;15.00;99.90;;;;;;5050876;28;20029;-72
2023/09/25 03:19:38;;;;;;;36.70;34.35;;;15.00;99.90;;;;;;5052174;28;20052;-71
2023/09/25 03:22:04;;;;;;;34.20;32.13;;;15.00;99.90;;;;;;5050663;28;20077;-71
2023/09/25 03:24:30;;;;;;;33.03;30.83;;;14.90;99.90;;;;;;5052034;28;20058;-71
2023/09/25 03:26:57;;;;;;;34.72;32.33;;;14.90;99.90;;;;;;5051785;28;20052;-71
2023/09/25 03:29:23;;;;;;;31.13;28.85;;;14.70;99.90;;;;;;5051370;28;20029;-71
2023/09/25 03:31:50;;;;;;;31.27;29.23;;;14.70;99.90;;;;;;5051113;28;20029;-71
2023/09/25 03:34:16;;;;;;;27.20;25.40;;;14.70;99.90;;;;;;5052284;28;20029;-71
2023/09/25 03:36:42;;;;;;;30.05;27.67;;;14.60;99.90;;;;;;5052066;28;20048;-71
2023/09/25 03:39:08;;;;;;;35.50;33.30;;;14.70;99.90;;;;;;5051640;28;20029;-71
2023/09/25 03:41:34;;;;;;;34.35;32.28;;;14.90;99.90;;;;;;5051953;28;20155;-71
2023/09/25 03:44:00;;;;;;;38.95;36.42;;;14.90;99.90;;;;;;5052085;28;20041;-71
2023/09/25 03:46:26;;;;;;;44.42;41.67;;;14.90;99.90;;;;;;5050790;28;20041;-71
2023/09/25 03:48:52;;;;;;;116.80;110.13;;;14.70;99.90;;;;;;5051251;28;20032;-71
2023/09/25 03:51:19;;;;;;;99.03;93.75;;;14.70;99.90;;;;;;5048786;28;20841;-71
2023/09/25 03:53:45;;;;;;;109.63;103.82;;;14.80;99.90;;;;;;5031966;28;20036;-71
2023/09/25 03:56:11;;;;;;;78.97;74.10;;;14.90;99.90;;;;;;5040188;28;20025;-71
2023/09/25 03:58:37;;;;;;;45.20;42.55;;;14.80;99.90;;;;;;5051374;28;20430;-71
2023/09/25 04:01:03;;;;;;;48.05;45.20;;;14.90;99.90;;;;;;5050486;28;20399;-71
2023/09/25 04:03:29;;;;;;;36.47;34.13;;;14.90;99.90;;;;;;5051495;28;20068;-71
2023/09/25 04:05:56;;;;;;;35.25;33.05;;;14.90;99.90;;;;;;5051505;28;20075;-71
2023/09/25 04:08:22;;;;;;;28.48;26.33;;;14.80;99.90;;;;;;5050557;28;20028;-71
2023/09/25 04:10:49;;;;;;;29.75;27.77;;;14.80;99.90;;;;;;5050793;28;20040;-71
2023/09/25 04:13:16;;;;;;;23.10;21.63;;;14.70;99.90;;;;;;5052073;28;20372;-70
2023/09/25 04:15:42;;;;;;;27.90;26.17;;;14.70;99.90;;;;;;5054278;28;20041;-71
2023/09/25 04:18:08;;;;;;;27.80;25.98;;;14.60;99.90;;;;;;5055410;28;20033;-71
2023/09/25 04:20:34;;;;;;;39.40;37.13;;;14.60;99.90;;;;;;5053846;28;20036;-72
2023/09/25 04:23:00;;;;;;;74.13;70.10;;;14.50;99.90;;;;;;5054960;28;20052;-71
2023/09/25 04:25:27;;;;;;;88.22;83.40;;;14.50;99.90;;;;;;5053227;28;20391;-71
2023/09/25 04:27:54;;;;;;;72.78;68.65;;;14.50;99.90;;;;;;5055101;28;20048;-71
2023/09/25 04:30:21;;;;;;;64.47;60.83;;;14.60;99.90;;;;;;5052510;28;20029;-71
2023/09/25 04:32:49;;;;;;;37.85;35.33;;;14.60;99.90;;;;;;5055182;28;20017;-71
2023/09/25 04:35:15;;;;;;;32.30;30.33;;;14.80;99.90;;;;;;5054603;28;20033;-71
2023/09/25 04:37:45;;;;;;;29.27;27.52;;;14.90;99.90;;;;;;5054918;28;20029;-71
2023/09/25 04:40:30;;;;;;;29.20;27.00;;;15.00;99.90;;;;;;5054426;28;20042;-71
2023/09/25 04:42:57;;;;;;;29.48;27.52;;;15.00;99.90;;;;;;5055008;28;20040;-71
2023/09/25 04:45:23;;;;;;;26.27;24.55;;;15.10;99.90;;;;;;5053841;28;20051;-71
2023/09/25 04:47:52;;;;;;;26.45;24.65;;;15.30;99.90;;;;;;5054559;28;20029;-71
2023/09/25 04:50:19;;;;;;;23.42;21.70;;;15.30;99.90;;;;;;5053843;28;20076;-71
2023/09/25 04:52:46;;;;;;;24.55;22.92;;;15.20;99.90;;;;;;5041903;28;20044;-71
2023/09/25 04:55:13;;;;;;;30.20;28.30;;;15.20;99.90;;;;;;5054023;28;20025;-71
2023/09/25 04:57:40;;;;;;;35.40;33.30;;;15.20;99.90;;;;;;5054266;28;20043;-71
2023/09/25 05:00:26;;;;;;;31.00;29.02;;;15.30;99.90;;;;;;5053231;28;20040;-71
2023/09/25 05:02:54;;;;;;;30.23;28.33;;;15.40;99.90;;;;;;5054709;28;20045;-71
2023/09/25 05:05:20;;;;;;;37.55;35.40;;;15.50;99.90;;;;;;5050575;28;20047;-71
2023/09/25 05:07:50;;;;;;;43.70;41.13;;;15.50;99.90;;;;;;5039113;28;20479;-71
2023/09/25 05:10:18;;;;;;;39.40;37.05;;;15.60;99.90;;;;;;5052026;28;20029;-71
2023/09/25 05:12:44;;;;;;;29.05;26.92;;;15.60;99.90;;;;;;5054144;28;20037;-71
2023/09/25 05:15:11;;;;;;;28.00;26.00;;;15.60;99.90;;;;;;5052921;28;20068;-71
2023/09/25 05:17:38;;;;;;;24.67;23.10;;;15.70;99.90;;;;;;5054318;28;20033;-72
2023/09/25 05:20:11;;;;;;;30.83;28.95;;;15.80;99.90;;;;;;5053397;28;20037;-71
2023/09/25 05:22:38;;;;;;;33.47;31.38;;;15.60;99.90;;;;;;5038862;28;20060;-71
2023/09/25 05:25:07;;;;;;;53.55;50.65;;;15.60;99.90;;;;;;5048493;28;20033;-71
2023/09/25 05:27:34;;;;;;;41.00;38.55;;;15.70;99.90;;;;;;5053620;28;20037;-71
2023/09/25 05:30:01;;;;;;;43.05;40.45;;;15.70;99.90;;;;;;5053845;28;20041;-71
2023/09/25 05:32:27;;;;;;;33.15;31.25;;;15.80;99.90;;;;;;5052694;28;20033;-72
2023/09/25 05:34:54;;;;;;;38.20;35.80;;;15.80;99.90;;;;;;5053901;28;20036;-72
2023/09/25 05:37:20;;;;;;;37.42;34.97;;;15.90;99.90;;;;;;5053536;28;20055;-71
2023/09/25 05:39:46;;;;;;;33.03;30.60;;;15.90;99.90;;;;;;5052780;28;20025;-71
2023/09/25 05:42:12;;;;;;;50.75;47.72;;;15.90;99.90;;;;;;5052192;28;20025;-71
2023/09/25 05:44:38;;;;;;;45.47;42.85;;;15.80;99.90;;;;;;5053307;28;20040;-71
2023/09/25 05:47:04;;;;;;;32.25;30.02;;;15.90;99.90;;;;;;5052520;28;20041;-71
2023/09/25 05:49:30;;;;;;;40.70;38.28;;;15.90;99.90;;;;;;5053228;28;20029;-71
2023/09/25 05:51:57;;;;;;;32.03;29.88;;;16.00;99.90;;;;;;5044450;28;20038;-72
2023/09/25 05:54:23;;;;;;;33.97;31.77;;;16.00;99.90;;;;;;5050767;28;20514;-71
2023/09/25 05:56:49;;;;;;;42.53;40.00;;;16.00;99.90;;;;;;5052843;28;20463;-71
2023/09/25 05:59:15;;;;;;;39.63;37.33;;;15.80;99.90;;;;;;5053087;28;20044;-71
2023/09/25 06:01:45;;;;;;;28.80;27.10;;;15.60;99.90;;;;;;5052516;28;20036;-71
2023/09/25 06:04:12;;;;;;;40.67;38.38;;;15.60;99.90;;;;;;5053591;28;20052;-71
2023/09/25 06:06:38;;;;;;;36.42;34.17;;;15.50;99.90;;;;;;5053189;28;20049;-71
2023/09/25 06:09:09;;;;;;;37.35;34.88;;;15.40;99.90;;;;;;5052913;28;20037;-71
2023/09/25 06:11:37;;;;;;;42.03;39.25;;;15.40;99.90;;;;;;5052613;28;20484;-71
2023/09/25 06:14:03;;;;;;;40.25;37.47;;;15.40;99.90;;;;;;5054200;28;20053;-71
2023/09/25 06:16:29;;;;;;;37.97;35.33;;;15.30;99.90;;;;;;5052147;28;20081;-72
2023/09/25 06:18:55;;;;;;;42.70;40.15;;;15.20;99.90;;;;;;5049367;28;20036;-69
2023/09/25 06:21:21;;;;;;;31.92;29.63;;;15.30;99.90;;;;;;5052095;28;20029;-69
2023/09/25 06:23:48;;;;;;;34.22;31.60;;;15.30;99.90;;;;;;5053236;28;20534;-69
2023/09/25 06:26:15;;;;;;;40.17;37.60;;;15.40;99.90;;;;;;5052318;28;20033;-69
2023/09/25 06:28:42;;;;;;;38.67;36.33;;;15.40;99.90;;;;;;5053066;28;20041;-69
2023/09/25 06:31:08;;;;;;;31.60;29.45;;;15.50;99.90;;;;;;5051493;28;20025;-69
2023/09/25 06:33:35;;;;;;;35.45;33.25;;;15.40;99.90;;;;;;5050846;28;20043;-69
2023/09/25 06:36:01;;;;;;;44.97;42.03;;;15.50;99.90;;;;;;5049580;28;20036;-69
2023/09/25 06:38:28;;;;;;;33.03;31.05;;;15.50;99.90;;;;;;5052638;28;20021;-69
2023/09/25 06:40:54;;;;;;;34.72;32.72;;;15.60;99.90;;;;;;5049141;28;20391;-69
2023/09/25 06:43:20;;;;;;;38.75;36.25;;;15.50;99.90;;;;;;5052338;28;20040;-69
2023/09/25 06:45:46;;;;;;;39.95;37.65;;;15.40;99.90;;;;;;5050903;28;20037;-69
2023/09/25 06:48:12;;;;;;;37.25;34.92;;;15.50;99.90;;;;;;5052026;28;20056;-69
2023/09/25 06:50:38;;;;;;;28.08;26.30;;;15.60;99.90;;;;;;5052358;28;20044;-69
2023/09/25 06:53:04;;;;;;;31.85;30.02;;;15.50;99.90;;;;;;5052585;28;20040;-69
2023/09/25 06:55:30;;;;;;;29.30;27.27;;;15.50;99.90;;;;;;5049950;28;20499;-69
2023/09/25 06:57:56;;;;;;;29.85;27.65;;;15.60;99.90;;;;;;5043895;28;20100;-70
2023/09/25 07:00:24;;;;;;;47.33;44.63;;;15.70;99.90;;;;;;5049408;28;20045;-69
2023/09/25 07:02:53;;;;;;;56.30;52.90;;;15.80;99.90;;;;;;5051627;28;20056;-70
2023/09/25 07:05:19;;;;;;;42.15;39.55;;;15.70;99.90;;;;;;5051917;28;20037;-70
2023/09/25 07:07:47;;;;;;;36.85;34.53;;;15.80;99.90;;;;;;5052481;28;20049;-69
2023/09/25 07:10:13;;;;;;;48.85;45.92;;;15.80;99.90;;;;;;5050402;28;20502;-70
2023/09/25 07:12:39;;;;;;;42.83;40.25;;;15.80;99.90;;;;;;5042142;28;20044;-68
2023/09/25 07:15:06;;;;;;;58.10;54.80;;;16.00;99.90;;;;;;5051379;28;20064;-68
2023/09/25 07:17:32;;;;;;;38.60;36.30;;;16.20;99.90;;;;;;5052031;28;20037;-68
2023/09/25 07:19:59;;;;;;;39.03;36.85;;;16.40;99.90;;;;;;5051887;28;20041;-68
2023/09/25 07:22:28;;;;;;;48.22;45.55;;;16.50;99.90;;;;;;5051811;28;20056;-69
2023/09/25 07:24:54;;;;;;;60.05;56.63;;;16.40;99.90;;;;;;5051969;28;20487;-69
2023/09/25 07:27:20;;;;;;;61.28;57.50;;;16.20;99.90;;;;;;5062935;28;20037;-68
2023/09/25 07:29:47;;;;;;;41.05;38.45;;;16.20;99.90;;;;;;5064774;28;20045;-72
2023/09/25 07:32:13;;;;;;;45.08;41.67;;;16.40;99.90;;;;;;5051080;28;20064;-73
2023/09/25 07:34:40;;;;;;;59.90;56.17;;;16.50;99.90;;;;;;5051726;28;20029;-69
2023/09/25 07:37:07;;;;;;;43.80;41.28;;;16.70;99.90;;;;;;5063241;28;20029;-68
2023/09/25 07:39:34;;;;;;;71.40;67.35;;;16.80;99.90;;;;;;5059355;28;20033;-68
2023/09/25 07:42:01;;;;;;;69.72;64.60;;;16.90;99.90;;;;;;5057294;28;20497;-68
2023/09/25 07:44:27;;;;;;;59.90;54.67;;;17.00;99.90;;;;;;5053910;28;20057;-68
2023/09/25 07:46:56;;;;;;;48.22;44.42;;;17.10;99.90;;;;;;5050535;28;20396;-68
2023/09/25 07:49:23;;;;;;;62.80;58.22;;;17.10;99.90;;;;;;5055379;28;20032;-68
2023/09/25 07:51:51;;;;;;;54.28;50.78;;;17.20;99.90;;;;;;5054846;28;20025;-68
2023/09/25 07:54:17;;;;;;;54.22;50.72;;;17.20;99.90;;;;;;5055647;28;20047;-68
2023/09/25 07:56:44;;;;;;;76.18;71.63;;;17.30;99.90;;;;;;5058490;28;20029;-68
2023/09/25 07:59:16;;;;;;;73.70;69.13;;;17.40;99.90;;;;;;5056139;28;20052;-67
2023/09/25 08:01:43;;;;;;;69.75;65.50;;;17.50;99.90;;;;;;5052420;28;20394;-68
2023/09/25 08:04:09;;;;;;;54.58;51.05;;;17.50;99.90;;;;;;5055480;28;20040;-68
2023/09/25 08:06:35;;;;;;;107.85;101.43;;;17.50;99.90;;;;;;5058669;28;20024;-67
2023/09/25 08:09:01;;;;;;;46.22;43.42;;;17.40;99.90;;;;;;5066820;28;20067;-67
2023/09/25 08:11:28;;;;;;;42.20;39.80;;;17.60;99.90;;;;;;5055705;28;20514;-68
2023/09/25 08:13:54;;;;;;;47.47;44.65;;;17.90;99.90;;;;;;5055173;28;20056;-68
2023/09/25 08:16:22;;;;;;;79.40;74.80;;;18.20;99.90;;;;;;5054902;28;20040;-68
2023/09/25 08:18:48;;;;;;;76.78;71.88;;;18.60;99.90;;;;;;5055062;28;20056;-69
2023/09/25 08:21:14;;;;;;;89.57;84.53;;;18.90;99.90;;;;;;5054884;28;20036;-71
2023/09/25 08:23:40;;;;;;;95.78;90.65;;;19.20;99.90;;;;;;5054134;28;20025;-71
2023/09/25 08:26:07;;;;;;;121.65;114.60;;;19.40;99.90;;;;;;5060880;28;20029;-68
2023/09/25 08:28:33;;;;;;;123.70;117.13;;;19.60;99.90;;;;;;5059098;28;20499;-68
2023/09/25 08:30:59;;;;;;;185.52;176.18;;;19.80;99.90;;;;;;5053894;28;20037;-68
2023/09/25 08:33:25;;;;;;;173.27;164.50;;;20.10;99.90;;;;;;5054674;28;20044;-68
2023/09/25 08:35:52;;;;;;;184.38;174.90;;;20.30;99.90;;;;;;5055634;28;20052;-69
2023/09/25 08:38:18;;;;;;;198.50;188.15;;;20.50;99.90;;;;;;5075350;28;20395;-68
2023/09/25 08:40:48;;;;;;;199.50;189.23;;;20.50;99.90;;;;;;5062721;28;20032;-69
2023/09/25 08:43:14;;;;;;;219.18;207.65;;;20.60;99.90;;;;;;5052656;28;20037;-69
2023/09/25 08:45:41;;;;;;;197.70;187.75;;;20.70;99.90;;;;;;5053355;28;20392;-69
2023/09/25 08:48:11;;;;;;;225.25;213.85;;;20.70;99.90;;;;;;5059657;28;20028;-69
2023/09/25 08:50:40;;;;;;;228.90;217.30;;;20.90;99.90;;;;;;5054094;28;20036;-69
2023/09/25 08:53:06;;;;;;;269.98;256.27;;;21.00;99.90;;;;;;5054021;28;20024;-69
2023/09/25 08:55:33;;;;;;;358.10;339.08;;;21.20;99.90;;;;;;5048962;28;20040;-69
2023/09/25 08:58:00;;;;;;;403.48;381.75;;;21.40;99.90;;;;;;5054417;28;20032;-69
2023/09/25 09:00:30;;;;;;;427.85;404.58;;;21.60;99.90;;;;;;5049210;28;20045;-69
2023/09/25 09:02:56;;;;;;;459.60;434.25;;;21.80;99.90;;;;;;5065934;28;20043;-69
2023/09/25 09:05:23;;;;;;;490.50;463.23;;;22.10;99.90;;;;;;5055211;28;20068;-69
2023/09/25 09:08:16;;;;;;;492.90;465.42;;;22.30;99.90;;;;;;5054294;28;20502;-69
2023/09/25 09:10:42;;;;;;;458.13;433.83;;;22.50;99.90;;;;;;5049342;28;20037;-69
2023/09/25 09:13:10;;;;;;;482.38;456.48;;;22.60;99.90;;;;;;5054451;28;20040;-69
2023/09/25 09:15:37;;;;;;;532.95;502.40;;;22.70;99.90;;;;;;5053710;28;20415;-69
2023/09/25 09:18:20;;;;;;;520.95;490.73;;;22.80;99.90;;;;;;5053793;28;20391;-69
2023/09/25 09:20:46;;;;;;;523.50;493.25;;;22.90;99.90;;;;;;5053308;28;20025;-69
2023/09/25 09:23:12;;;;;;;485.25;458.90;;;22.90;99.90;;;;;;5054379;28;20037;-69
2023/09/25 09:25:39;;;;;;;524.30;494.48;;;22.90;99.90;;;;;;5053268;28;20055;-69
2023/09/25 09:28:06;;;;;;;519.40;490.10;;;23.00;99.90;;;;;;5054048;28;20040;-69
2023/09/25 09:30:32;;;;;;;488.58;461.95;;;23.10;99.90;;;;;;5053294;28;20052;-69
2023/09/25 09:32:58;;;;;;;513.28;484.80;;;23.10;99.90;;;;;;5053635;28;20514;-69
2023/09/25 09:35:25;;;;;;;510.52;482.30;;;23.10;99.90;;;;;;5053190;28;20037;-69
2023/09/25 09:37:54;;;;;;;546.28;515.08;;;23.10;99.90;;;;;;5062778;28;20047;-69
2023/09/25 09:40:24;;;;;;;515.47;487.27;;;23.10;99.90;;;;;;5071286;28;20059;-68
2023/09/25 09:42:51;;;;;;;534.38;505.00;;;23.10;99.90;;;;;;5035967;28;20029;-69
2023/09/25 09:45:18;;;;;;;535.83;505.95;;;23.10;99.90;;;;;;5034174;28;20033;-71
2023/09/25 09:47:46;;;;;;;646.08;607.15;;;23.10;99.90;;;;;;5063355;28;20033;-68
2023/09/25 09:50:13;;;;;;;588.60;554.47;;;23.20;99.90;;;;;;5052129;28;20037;-69
2023/09/25 09:52:39;;;;;;;608.85;572.67;;;23.30;99.90;;;;;;5033672;28;20396;-69
2023/09/25 09:55:07;;;;;;;617.42;580.40;;;23.30;99.90;;;;;;5033692;28;20029;-69
2023/09/25 09:57:33;;;;;;;612.28;576.03;;;23.40;99.90;;;;;;5052784;28;20048;-69
2023/09/25 10:00:00;;;;;;;623.55;586.58;;;23.40;99.90;;;;;;5053400;28;20040;-68
2023/09/25 10:02:28;;;;;;;627.45;589.92;;;23.40;99.90;;;;;;5052222;28;20045;-68
2023/09/25 10:04:57;;;;;;;604.42;568.80;;;23.30;99.90;;;;;;5053828;28;20051;-69
2023/09/25 10:07:24;;;;;;;566.42;533.75;;;23.30;99.90;;;;;;5050458;28;20514;-69
2023/09/25 10:10:04;;;;;;;580.75;547.10;;;23.40;99.90;;;;;;5053469;28;20052;-68
2023/09/25 10:12:43;;;;;;;613.47;576.28;;;23.40;99.90;;;;;;5049493;28;20036;-69
2023/09/25 10:15:11;;;;;;;638.75;600.30;;;23.40;99.90;;;;;;5051174;28;20044;-68
2023/09/25 10:17:45;;;;;;;644.97;605.78;;;23.40;99.90;;;;;;5032849;28;20057;-69
2023/09/25 10:20:30;;;;;;;557.65;525.33;;;23.40;99.90;;;;;;5052647;28;20387;-69
2023/09/25 10:23:19;;;;;;;589.53;555.22;;;23.40;99.90;;;;;;5053007;28;20364;-68
2023/09/25 10:25:56;;;;;;;601.95;566.53;;;23.50;99.90;;;;;;5049401;28;20048;-69
2023/09/25 10:28:26;;;;;;;596.65;561.55;;;23.50;99.90;;;;;;5055090;28;20024;-72
2023/09/25 10:30:58;;;;;;;540.65;509.77;;;23.50;99.90;;;;;;5051661;28;20040;-73
2023/09/25 10:33:35;;;;;;;569.60;536.60;;;23.60;99.90;;;;;;5052107;28;20021;-73
2023/09/25 10:36:03;;;;;;;552.92;521.35;;;23.60;99.90;;;;;;5049798;28;20036;-72
2023/09/25 10:38:31;;;;;;;618.53;581.22;;;23.70;99.90;;;;;;5053952;28;20044;-73
2023/09/25 10:41:07;;;;;;;591.40;556.22;;;23.70;99.90;;;;;;5063437;28;20041;-73
2023/09/25 10:43:34;;;;;;;610.05;573.17;;;23.90;99.90;;;;;;5032820;28;20033;-72
2023/09/25 10:46:00;;;;;;;583.85;549.45;;;24.00;99.90;;;;;;5038053;28;20041;-72
2023/09/25 10:48:27;;;;;;;598.28;562.40;;;24.00;99.90;;;;;;5051786;28;20510;-72
2023/09/25 10:50:54;;;;;;;559.83;527.50;;;24.00;99.90;;;;;;5051992;28;20398;-73
2023/09/25 10:53:21;;;;;;;528.08;497.50;;;24.00;99.90;;;;;;5051186;28;20040;-73
2023/09/25 10:55:48;;;;;;;604.08;568.00;;;24.00;99.90;;;;;;5052871;28;20407;-72
2023/09/25 10:58:14;;;;;;;587.60;552.40;;;24.00;99.90;;;;;;5057629;28;20162;-72
2023/09/25 11:00:41;;;;;;;595.13;559.80;;;24.00;99.90;;;;;;5059517;28;20063;-72
2023/09/25 11:03:07;;;;;;;622.35;584.70;;;24.00;99.90;;;;;;5052409;28;20051;-73
2023/09/25 11:05:35;;;;;;;548.15;516.35;;;24.00;99.90;;;;;;5052877;28;20053;-72
2023/09/25 11:08:03;;;;;;;597.92;562.08;;;24.00;99.90;;;;;;5049805;28;20029;-73
2023/09/25 11:10:30;;;;;;;557.28;525.13;;;24.00;99.90;;;;;;5050797;28;20507;-73
2023/09/25 11:12:57;;;;;;;534.97;504.17;;;24.10;99.90;;;;;;5050599;28;20443;-72
2023/09/25 11:15:26;;;;;;;597.47;562.20;;;24.00;99.90;;;;;;5051661;28;20047;-72
2023/09/25 11:17:53;;;;;;;613.60;577.30;;;23.70;99.90;;;;;;5051729;28;20037;-72
2023/09/25 11:20:19;;;;;;;582.88;549.35;;;23.70;99.90;;;;;;5049946;28;20033;-72
2023/09/25 11:22:46;;;;;;;570.47;537.10;;;23.70;99.90;;;;;;5033039;28;20036;-72
2023/09/25 11:25:15;;;;;;;606.15;570.70;;;23.80;99.90;;;;;;5050977;28;20060;-73
2023/09/25 11:27:53;;;;;;;598.75;563.72;;;23.90;99.90;;;;;;5052477;28;20048;-72
2023/09/25 11:30:19;;;;;;;589.03;555.40;;;23.90;99.90;;;;;;5050606;28;20395;-73
2023/09/25 11:32:46;;;;;;;566.80;533.97;;;24.00;99.90;;;;;;5071634;28;20379;-73
2023/09/25 11:35:15;;;;;;;609.70;573.28;;;24.00;99.90;;;;;;5069826;28;20051;-73
2023/09/25 11:38:00;;;;;;;586.22;552.60;;;23.90;99.90;;;;;;5049676;28;20033;-72
2023/09/25 11:40:27;;;;;;;632.60;594.70;;;23.90;99.90;;;;;;5051072;28;20045;-72
2023/09/25 11:42:57;;;;;;;595.38;561.17;;;23.90;99.90;;;;;;5049224;28;20045;-72
2023/09/25 11:45:23;;;;;;;584.83;551.38;;;23.90;99.90;;;;;;5050166;28;20049;-73
2023/09/25 11:47:49;;;;;;;614.20;578.00;;;23.90;99.90;;;;;;5059740;28;20048;-72
2023/09/25 11:50:16;;;;;;;580.17;546.85;;;24.00;99.90;;;;;;5051107;28;20034;-72
2023/09/25 11:52:43;;;;;;;607.50;572.30;;;23.90;99.90;;;;;;5051758;28;20021;-72
2023/09/25 11:55:10;;;;;;;590.35;556.50;;;23.90;99.90;;;;;;5051372;28;20044;-72
2023/09/25 11:57:37;;;;;;;586.65;553.38;;;24.00;99.90;;;;;;5043874;28;20053;-72
2023/09/25 12:00:05;;;;;;;589.38;554.97;;;24.00;99.90;;;;;;5049975;28;20040;-72
2023/09/25 12:02:32;;;;;;;582.42;548.33;;;24.10;99.90;;;;;;5051136;28;20042;-72
2023/09/25 12:04:58;;;;;;;567.13;534.80;;;24.00;99.90;;;;;;5050333;28;20037;-71
2023/09/25 12:07:26;;;;;;;570.60;537.08;;;24.00;99.90;;;;;;5050594;28;20484;-72
2023/09/25 12:09:52;;;;;;;569.90;537.63;;;24.00;99.90;;;;;;5051491;28;20041;-72
2023/09/25 12:12:19;;;;;;;560.85;529.35;;;23.80;99.90;;;;;;5050270;28;20372;-72
2023/09/25 12:14:45;;;;;;;577.00;543.15;;;23.80;99.90;;;;;;5066974;28;20056;-72
2023/09/25 12:17:11;;;;;;;540.95;510.52;;;23.80;99.90;;;;;;5054475;28;20037;-72
2023/09/25 12:19:38;;;;;;;578.35;544.88;;;23.80;99.90;;;;;;5050480;28;20402;-73
2023/09/25 12:22:05;;;;;;;553.75;522.83;;;23.80;99.90;;;;;;5049587;28;20113;-73